createdAt,value
2023-01-21T00:00:56.697Z,1.2
2023-01-21T00:02:06.815Z,1.1
2023-01-21T00:03:16.931Z,1.1
2023-01-21T00:04:27.056Z,1.1
2023-01-21T00:05:37.162Z,1
2023-01-21T00:06:47.295Z,1
2023-01-21T00:07:57.401Z,1
2023-01-21T00:09:07.518Z,0.9
2023-01-21T00:10:17.634Z,0.9
2023-01-21T00:11:26.785Z,1
2023-01-21T00:12:36.889Z,1
2023-01-21T00:14:57.138Z,1.1
2023-01-21T00:16:07.263Z,1.1
2023-01-21T00:17:17.370Z,1.1
2023-01-21T00:18:27.495Z,1
2023-01-21T00:19:37.620Z,1
2023-01-21T00:20:47.722Z,1
2023-01-21T00:21:57.845Z,1
2023-01-21T00:23:07.970Z,1
2023-01-21T00:24:18.080Z,1
2023-01-21T00:25:28.202Z,1.1
2023-01-21T00:26:37.334Z,1.1
2023-01-21T00:27:47.462Z,1.2
2023-01-21T00:28:57.579Z,1.1
2023-01-21T00:30:07.703Z,1.2
2023-01-21T00:31:17.809Z,1.3
2023-01-21T00:32:27.935Z,1.4
2023-01-21T00:33:38.056Z,1.4
2023-01-21T00:35:58.291Z,1.3
2023-01-21T00:37:08.403Z,1.4
2023-01-21T00:38:18.528Z,1.3
2023-01-21T00:39:28.651Z,1.3
2023-01-21T00:40:38.774Z,1.4
2023-01-21T00:41:47.904Z,1.4
2023-01-21T00:42:58.023Z,1.3
2023-01-21T00:44:08.140Z,1.3
2023-01-21T00:45:18.262Z,1.2
2023-01-21T00:46:28.384Z,1.2
2023-01-21T00:47:38.490Z,1.3
2023-01-21T00:49:58.734Z,1.2
2023-01-21T00:51:08.850Z,1.1
2023-01-21T00:52:18.979Z,1
2023-01-21T00:53:29.086Z,1.1
2023-01-21T00:54:39.216Z,1.1
2023-01-21T00:55:49.335Z,1.2
2023-01-21T00:56:58.471Z,1.2
2023-01-21T00:58:08.578Z,1.2
2023-01-21T01:00:28.821Z,1.2
2023-01-21T01:01:38.937Z,1.3
2023-01-21T01:02:49.049Z,1.3
2023-01-21T01:03:59.173Z,1.3
2023-01-21T01:05:09.287Z,1.3
2023-01-21T01:06:19.408Z,1.3
2023-01-21T01:07:29.527Z,1.3
2023-01-21T01:08:39.649Z,1.4
2023-01-21T01:10:59.894Z,1.4
2023-01-21T01:12:09.031Z,1.4
2023-01-21T01:13:18.172Z,1.4
2023-01-21T01:14:28.293Z,1.4
2023-01-21T01:15:38.404Z,1.4
2023-01-21T01:16:48.526Z,1.4
2023-01-21T01:17:58.640Z,1.4
2023-01-21T01:19:08.767Z,1.4
2023-01-21T01:20:18.877Z,1.4
2023-01-21T01:21:29.009Z,1.4
2023-01-21T01:22:39.114Z,1.4
2023-01-21T01:24:59.359Z,1.4
2023-01-21T01:26:09.469Z,1.4
2023-01-21T01:27:19.597Z,1.4
2023-01-21T01:28:28.737Z,1.4
2023-01-21T01:29:38.843Z,1.5
2023-01-21T01:30:48.966Z,1.5
2023-01-21T01:31:59.092Z,1.5
2023-01-21T01:33:09.211Z,1.5
2023-01-21T01:34:19.320Z,1.5
2023-01-21T01:35:29.444Z,1.5
2023-01-21T01:36:39.553Z,1.4
2023-01-21T01:38:58.834Z,1.4
2023-01-21T01:40:07.961Z,1.4
2023-01-21T01:41:18.081Z,1.5
2023-01-21T01:42:28.202Z,1.5
2023-01-21T01:43:38.305Z,1.5
2023-01-21T01:44:48.425Z,1.5
2023-01-21T01:45:58.547Z,1.4
2023-01-21T01:47:08.671Z,1.4
2023-01-21T01:48:18.781Z,1.4
2023-01-21T01:49:27.926Z,1.4
2023-01-21T01:50:37.064Z,1.4
2023-01-21T01:51:47.187Z,1.4
2023-01-21T01:52:57.309Z,1.4
2023-01-21T01:54:07.418Z,1.4
2023-01-21T01:55:17.539Z,1.4
2023-01-21T01:56:27.664Z,1.4
2023-01-21T01:57:37.786Z,1.4
2023-01-21T01:58:47.909Z,1.5
2023-01-21T01:59:58.011Z,1.5
2023-01-21T02:01:08.136Z,1.5
2023-01-21T02:03:28.374Z,1.4
2023-01-21T02:04:38.492Z,1.4
2023-01-21T02:06:57.755Z,1.3
2023-01-21T02:08:08.022Z,1.4
2023-01-21T02:09:17.142Z,1.4
2023-01-21T02:10:27.269Z,1.3
2023-01-21T02:11:37.393Z,1.3
2023-01-21T02:12:47.515Z,1.4
2023-01-21T02:13:57.621Z,1.4
2023-01-21T02:15:07.749Z,1.4
2023-01-21T02:16:17.853Z,1.4
2023-01-21T02:17:27.983Z,1.4
2023-01-21T02:18:38.106Z,1.4
2023-01-21T02:19:48.225Z,1.4
2023-01-21T02:20:57.368Z,1.4
2023-01-21T02:22:06.500Z,1.4
2023-01-21T02:23:16.619Z,1.4
2023-01-21T02:24:26.739Z,1.4
2023-01-21T02:25:36.862Z,1.4
2023-01-21T02:26:46.981Z,1.3
2023-01-21T02:27:57.087Z,1.3
2023-01-21T02:29:07.207Z,1.3
2023-01-21T02:30:17.332Z,1.3
2023-01-21T02:31:27.457Z,1.3
2023-01-21T02:32:37.567Z,1.4
2023-01-21T02:34:57.813Z,1.3
2023-01-21T02:36:07.915Z,1.3
2023-01-21T02:37:17.068Z,1.3
2023-01-21T02:38:27.179Z,1.3
2023-01-21T02:39:37.303Z,1.2
2023-01-21T02:40:47.422Z,1.2
2023-01-21T02:41:57.539Z,1.2
2023-01-21T02:43:07.658Z,1.2
2023-01-21T02:44:17.772Z,1.2
2023-01-21T02:45:27.894Z,1.2
2023-01-21T02:46:38.017Z,1.2
2023-01-21T02:47:48.138Z,1.1
2023-01-21T02:48:58.252Z,1
2023-01-21T02:50:08.368Z,1
2023-01-21T02:51:18.492Z,1
2023-01-21T02:52:27.616Z,1
2023-01-21T02:53:37.742Z,1
2023-01-21T02:54:47.855Z,1
2023-01-21T02:55:57.977Z,0.9
2023-01-21T02:57:08.096Z,0.8
2023-01-21T02:58:18.223Z,0.8
2023-01-21T02:59:28.330Z,0.8
2023-01-21T03:00:38.454Z,0.7
2023-01-21T03:01:48.581Z,0.7
2023-01-21T03:02:58.687Z,0.6
2023-01-21T03:04:08.809Z,0.6
2023-01-21T03:05:18.000Z,0.6
2023-01-21T03:06:29.049Z,0.6
2023-01-21T03:07:38.181Z,0.6
2023-01-21T03:09:58.424Z,0.5
2023-01-21T03:11:08.544Z,0.5
2023-01-21T03:12:18.651Z,0.5
2023-01-21T03:13:28.773Z,0.5
2023-01-21T03:14:38.903Z,0.5
2023-01-21T03:15:49.005Z,0.4
2023-01-21T03:16:59.124Z,0.4
2023-01-21T03:18:09.258Z,0.4
2023-01-21T03:19:19.379Z,0.3
2023-01-21T03:20:29.498Z,0.3
2023-01-21T03:21:39.601Z,0.2
2023-01-21T03:22:48.746Z,0.3
2023-01-21T03:23:58.866Z,0.3
2023-01-21T03:25:08.981Z,0.2
2023-01-21T03:26:19.110Z,0.2
2023-01-21T03:27:29.218Z,0.2
2023-01-21T03:28:39.337Z,0.2
2023-01-21T03:29:49.457Z,0.2
2023-01-21T03:30:59.573Z,0.1
2023-01-21T03:32:09.699Z,0
2023-01-21T03:33:19.805Z,0
2023-01-21T03:34:29.926Z,0
2023-01-21T03:35:39.079Z,0
2023-01-21T03:36:49.185Z,-0.1
2023-01-21T03:37:59.305Z,-0.2
2023-01-21T03:39:09.424Z,-0.2
2023-01-21T03:40:19.557Z,-0.3
2023-01-21T03:41:29.663Z,-0.2
2023-01-21T03:42:39.795Z,-0.2
2023-01-21T03:45:00.028Z,-0.3
2023-01-21T03:46:10.147Z,-0.3
2023-01-21T03:47:20.269Z,-0.4
2023-01-21T03:48:30.379Z,-0.4
2023-01-21T03:49:40.499Z,-0.5
2023-01-21T03:52:00.729Z,-0.6
2023-01-21T03:53:09.865Z,-0.6
2023-01-21T03:54:19.985Z,-0.6
2023-01-21T03:55:30.111Z,-0.6
2023-01-21T03:56:40.236Z,-0.8
2023-01-21T03:57:50.337Z,-0.8
2023-01-21T03:59:00.456Z,-0.9
2023-01-21T04:00:10.573Z,-0.9
2023-01-21T04:01:20.712Z,-1
2023-01-21T04:02:30.813Z,-0.9
2023-01-21T04:03:40.934Z,-0.9
2023-01-21T04:04:51.058Z,-0.9
2023-01-21T04:06:01.170Z,-1
2023-01-21T04:08:21.413Z,-0.9
2023-01-21T04:09:30.554Z,-0.9
2023-01-21T04:10:39.687Z,-0.9
2023-01-21T04:11:49.806Z,-1
2023-01-21T04:12:59.932Z,-1
2023-01-21T04:15:20.169Z,-1.1
2023-01-21T04:16:30.290Z,-1.1
2023-01-21T04:17:40.413Z,-1.1
2023-01-21T04:18:50.533Z,-1.1
2023-01-21T04:20:00.651Z,-1
2023-01-21T04:21:10.755Z,-1
2023-01-21T04:22:20.892Z,-1
2023-01-21T04:23:30.992Z,-1
2023-01-21T04:24:41.116Z,-1
2023-01-21T04:27:00.369Z,-0.8
2023-01-21T04:28:09.527Z,-0.8
2023-01-21T04:29:18.380Z,-0.8
2023-01-21T04:30:28.764Z,-0.9
2023-01-21T04:31:38.902Z,-0.9
2023-01-21T04:32:49.009Z,-0.9
2023-01-21T04:33:59.133Z,-1.1
2023-01-21T04:35:09.238Z,-1.2
2023-01-21T04:36:19.364Z,-1.2
2023-01-21T04:37:29.490Z,-1.1
2023-01-21T04:38:39.597Z,-1.1
2023-01-21T04:39:49.728Z,-1.1
2023-01-21T04:40:58.862Z,-1.2
2023-01-21T04:42:09.120Z,-1.3
2023-01-21T04:43:19.227Z,-1.3
2023-01-21T04:44:29.344Z,-1.4
2023-01-21T04:45:39.464Z,-1.4
2023-01-21T04:46:49.583Z,-1.5
2023-01-21T04:47:59.710Z,-1.4
2023-01-21T04:49:09.817Z,-1.4
2023-01-21T04:50:19.938Z,-1.3
2023-01-21T04:51:30.062Z,-1.3
2023-01-21T04:52:40.171Z,-1.2
2023-01-21T04:53:50.448Z,-1.2
2023-01-21T04:54:59.581Z,-1.2
2023-01-21T04:56:09.700Z,-1.2
2023-01-21T04:57:19.819Z,-1.2
2023-01-21T04:58:29.942Z,-1.2
2023-01-21T04:59:40.053Z,-1.2
2023-01-21T05:00:50.174Z,-1.2
2023-01-21T05:02:00.298Z,-1.3
2023-01-21T05:03:10.406Z,-1.3
2023-01-21T05:04:20.244Z,-1.3
2023-01-21T05:05:30.368Z,-1.3
2023-01-21T05:06:40.765Z,-1.3
2023-01-21T05:07:50.893Z,-1.2
2023-01-21T05:09:01.006Z,-1.2
2023-01-21T05:10:10.131Z,-1.2
2023-01-21T05:11:20.254Z,-1.1
2023-01-21T05:12:30.089Z,-1.1
2023-01-21T05:13:40.205Z,-0.9
2023-01-21T05:14:50.626Z,-0.8
2023-01-21T05:16:00.729Z,-0.8
2023-01-21T05:17:10.857Z,-0.7
2023-01-21T05:18:20.967Z,-0.7
2023-01-21T05:19:31.090Z,-0.6
2023-01-21T05:20:41.213Z,-0.6
2023-01-21T05:21:51.320Z,-0.5
2023-01-21T05:23:01.447Z,-0.7
2023-01-21T05:24:11.570Z,-0.6
2023-01-21T05:25:20.700Z,-0.5
2023-01-21T05:26:30.817Z,-0.5
2023-01-21T05:27:40.659Z,-0.4
2023-01-21T05:28:51.049Z,-0.3
2023-01-21T05:30:01.170Z,-0.3
2023-01-21T05:31:11.287Z,-0.3
2023-01-21T05:32:21.415Z,-0.3
2023-01-21T05:33:31.528Z,-0.3
2023-01-21T05:34:41.655Z,-0.4
2023-01-21T05:35:51.780Z,-0.4
2023-01-21T05:37:01.885Z,-0.3
2023-01-21T05:38:12.013Z,-0.3
2023-01-21T05:39:22.136Z,-0.4
2023-01-21T05:40:32.362Z,-0.4
2023-01-21T05:41:42.486Z,-0.4
2023-01-21T05:42:52.605Z,-0.4
2023-01-21T05:44:02.728Z,-0.3
2023-01-21T05:45:12.851Z,-0.2
2023-01-21T05:46:22.958Z,-0.2
2023-01-21T05:47:33.077Z,0
2023-01-21T05:48:43.194Z,0
2023-01-21T05:49:53.314Z,0.1
2023-01-21T05:51:03.435Z,0.1
2023-01-21T05:53:23.901Z,0.1
2023-01-21T05:54:33.797Z,0.2
2023-01-21T05:55:42.926Z,0.1
2023-01-21T05:56:53.048Z,0.2
2023-01-21T05:58:03.176Z,0.2
2023-01-21T05:59:13.295Z,0.3
2023-01-21T06:00:23.397Z,0.2
2023-01-21T06:01:33.530Z,0.1
2023-01-21T06:02:43.642Z,0.2
2023-01-21T06:03:53.765Z,0.2
2023-01-21T06:05:03.888Z,0.3
2023-01-21T06:06:13.994Z,0.3
2023-01-21T06:07:24.117Z,0.3
2023-01-21T06:08:34.233Z,0.3
2023-01-21T06:09:44.347Z,0.4
2023-01-21T06:12:03.608Z,0.5
2023-01-21T06:13:13.730Z,0.6
2023-01-21T06:14:23.845Z,0.6
2023-01-21T06:15:33.962Z,0.6
2023-01-21T06:16:44.082Z,0.6
2023-01-21T06:17:54.201Z,0.7
2023-01-21T06:19:04.548Z,0.6
2023-01-21T06:20:14.447Z,0.6
2023-01-21T06:21:24.561Z,0.6
2023-01-21T06:22:34.690Z,0.6
2023-01-21T06:23:44.789Z,0.7
2023-01-21T06:24:54.914Z,0.7
2023-01-21T06:26:04.055Z,0.8
2023-01-21T06:27:14.176Z,0.8
2023-01-21T06:28:24.295Z,0.8
2023-01-21T06:29:34.411Z,0.8
2023-01-21T06:30:44.530Z,0.9
2023-01-21T06:33:04.769Z,0.9
2023-01-21T06:34:14.885Z,0.9
2023-01-21T06:35:25.000Z,1
2023-01-21T06:36:35.123Z,1
2023-01-21T06:37:45.237Z,1
2023-01-21T06:40:05.489Z,0.9
2023-01-21T06:41:14.617Z,0.9
2023-01-21T06:42:24.740Z,1
2023-01-21T06:43:34.845Z,0.9
2023-01-21T06:44:44.971Z,1
2023-01-21T06:47:05.218Z,1.1
2023-01-21T06:48:14.350Z,1.2
2023-01-21T06:49:23.482Z,1.1
2023-01-21T06:50:33.602Z,1.1
2023-01-21T06:51:43.720Z,1.2
2023-01-21T06:54:03.938Z,1.2
2023-01-21T06:55:14.083Z,1.2
2023-01-21T06:56:24.174Z,1.2
2023-01-21T06:57:34.299Z,1.2
2023-01-21T06:58:44.424Z,1.3
2023-01-21T06:59:54.565Z,1.2
2023-01-21T07:01:04.677Z,1.3
2023-01-21T07:02:14.789Z,1.2
2023-01-21T07:03:24.892Z,1.3
2023-01-21T07:04:34.047Z,1.3
2023-01-21T07:05:44.166Z,1.3
2023-01-21T07:06:54.287Z,1.3
2023-01-21T07:08:04.398Z,1.4
2023-01-21T07:09:14.519Z,1.4
2023-01-21T07:10:24.634Z,1.4
2023-01-21T07:11:34.756Z,1.4
2023-01-21T07:12:44.856Z,1.5
2023-01-21T07:13:54.028Z,1.5
2023-01-21T07:15:03.164Z,1.5
2023-01-21T07:16:13.281Z,1.6
2023-01-21T07:17:23.373Z,1.6
2023-01-21T07:18:33.526Z,1.6
2023-01-21T07:19:43.629Z,1.6
2023-01-21T07:20:53.763Z,1.6
2023-01-21T07:22:03.866Z,1.6
2023-01-21T07:23:13.991Z,1.6
2023-01-21T07:24:24.107Z,1.6
2023-01-21T07:25:34.226Z,1.6
2023-01-21T07:26:44.349Z,1.6
2023-01-21T07:27:54.474Z,1.6
2023-01-21T07:29:04.580Z,1.5
2023-01-21T07:30:13.717Z,1.5
2023-01-21T07:31:23.852Z,1.6
2023-01-21T07:32:33.934Z,1.6
2023-01-21T07:33:44.085Z,1.6
2023-01-21T07:34:54.209Z,1.6
2023-01-21T07:36:04.314Z,1.6
2023-01-21T07:38:24.530Z,1.6
2023-01-21T07:39:34.650Z,1.6
2023-01-21T07:40:44.766Z,1.6
2023-01-21T07:41:54.917Z,1.7
2023-01-21T07:43:05.023Z,1.7
2023-01-21T07:44:15.157Z,1.7
2023-01-21T07:45:24.289Z,1.6
2023-01-21T07:46:34.413Z,1.6
2023-01-21T07:47:44.514Z,1.6
2023-01-21T07:50:04.764Z,1.8
2023-01-21T07:51:14.889Z,1.8
2023-01-21T07:52:24.991Z,1.9
2023-01-21T07:53:35.111Z,1.9
2023-01-21T07:54:45.227Z,1.9
2023-01-21T07:57:05.474Z,1.9
2023-01-21T07:58:15.740Z,1.8
2023-01-21T07:59:24.870Z,1.8
2023-01-21T08:00:34.994Z,1.8
2023-01-21T08:01:45.114Z,1.8
2023-01-21T08:02:55.241Z,1.8
2023-01-21T08:04:05.350Z,1.8
2023-01-21T08:06:25.593Z,1.8
2023-01-21T08:07:35.701Z,1.9
2023-01-21T08:08:45.829Z,1.9
2023-01-21T08:09:55.950Z,1.9
2023-01-21T08:11:06.066Z,2
2023-01-21T08:12:16.188Z,2.1
2023-01-21T08:13:26.308Z,2.2
2023-01-21T08:14:36.550Z,2.2
2023-01-21T08:15:46.668Z,2.2
2023-01-21T08:16:56.775Z,2.2
2023-01-21T08:18:06.905Z,2.2
2023-01-21T08:19:17.011Z,2.3
2023-01-21T08:20:27.135Z,2.3
2023-01-21T08:21:37.255Z,2.3
2023-01-21T08:22:47.376Z,2.2
2023-01-21T08:23:56.529Z,2.2
2023-01-21T08:25:05.657Z,2.3
2023-01-21T08:26:15.775Z,2.3
2023-01-21T08:27:25.894Z,2.3
2023-01-21T08:28:36.000Z,2.3
2023-01-21T08:29:46.123Z,2.1
2023-01-21T08:30:56.247Z,2
2023-01-21T08:32:06.367Z,2.1
2023-01-21T08:33:16.475Z,2.1
2023-01-21T08:34:26.611Z,2.2
2023-01-21T08:35:36.728Z,2.2
2023-01-21T08:36:46.841Z,2.3
2023-01-21T08:37:56.964Z,2.4
2023-01-21T08:39:07.045Z,2.5
2023-01-21T08:40:16.217Z,2.5
2023-01-21T08:41:26.319Z,2.6
2023-01-21T08:42:36.417Z,2.5
2023-01-21T08:43:46.571Z,2.6
2023-01-21T08:44:56.690Z,2.6
2023-01-21T08:46:06.797Z,2.7
2023-01-21T08:47:16.921Z,2.7
2023-01-21T08:48:27.047Z,2.7
2023-01-21T08:49:37.165Z,2.7
2023-01-21T08:50:47.268Z,2.7
2023-01-21T08:51:57.386Z,2.7
2023-01-21T08:53:07.510Z,2.7
2023-01-21T08:54:17.633Z,2.7
2023-01-21T08:55:26.769Z,2.8
2023-01-21T08:56:36.896Z,2.9
2023-01-21T08:57:47.003Z,2.9
2023-01-21T09:00:07.246Z,2.9
2023-01-21T09:01:17.360Z,2.9
2023-01-21T09:02:27.470Z,2.9
2023-01-21T09:03:37.608Z,3
2023-01-21T09:04:47.712Z,3
2023-01-21T09:05:57.835Z,3.1
2023-01-21T09:07:07.955Z,3.1
2023-01-21T09:08:18.076Z,3.1
2023-01-21T09:09:28.196Z,3.1
2023-01-21T09:10:37.323Z,3.1
2023-01-21T09:11:47.448Z,3.1
2023-01-21T09:14:07.679Z,3.3
2023-01-21T09:15:17.802Z,3.3
2023-01-21T09:16:27.924Z,3.3
2023-01-21T09:17:38.025Z,3.4
2023-01-21T09:18:48.145Z,3.4
2023-01-21T09:19:58.271Z,3.4
2023-01-21T09:21:08.399Z,3.5
2023-01-21T09:22:18.517Z,3.5
2023-01-21T09:23:28.620Z,3.7
2023-01-21T09:24:38.753Z,3.6
2023-01-21T09:25:47.882Z,3.7
2023-01-21T09:28:08.116Z,3.7
2023-01-21T09:30:28.353Z,3.8
2023-01-21T09:31:37.488Z,3.8
2023-01-21T09:32:46.626Z,3.8
2023-01-21T09:33:56.746Z,3.8
2023-01-21T09:35:06.861Z,3.9
2023-01-21T09:36:16.979Z,3.9
2023-01-21T09:37:27.110Z,4
2023-01-21T09:38:37.228Z,4
2023-01-21T09:39:47.347Z,4
2023-01-21T09:40:57.462Z,4.1
2023-01-21T09:42:07.578Z,4.2
2023-01-21T09:43:17.703Z,4.2
2023-01-21T09:44:26.832Z,4.3
2023-01-21T09:45:35.970Z,4.2
2023-01-21T09:46:46.088Z,4.2
2023-01-21T09:47:56.209Z,4.4
2023-01-21T09:49:06.328Z,4.3
2023-01-21T09:50:16.453Z,4.4
2023-01-21T09:51:26.557Z,4.4
2023-01-21T09:52:36.678Z,4.4
2023-01-21T09:53:46.487Z,4.6
2023-01-21T09:54:56.922Z,4.6
2023-01-21T09:56:07.042Z,4.8
2023-01-21T09:57:17.147Z,4.9
2023-01-21T09:58:27.277Z,4.9
2023-01-21T09:59:37.402Z,4.9
2023-01-21T10:00:46.532Z,4.9
2023-01-21T10:01:56.648Z,4.8
2023-01-21T10:03:06.768Z,4.8
2023-01-21T10:04:16.873Z,4.7
2023-01-21T10:05:26.991Z,4.7
2023-01-21T10:06:37.000Z,4.7
2023-01-21T10:07:47.239Z,4.7
2023-01-21T10:08:57.351Z,4.6
2023-01-21T10:10:07.474Z,4.7
2023-01-21T10:11:17.582Z,4.7
2023-01-21T10:12:27.708Z,4.7
2023-01-21T10:13:37.822Z,4.7
2023-01-21T10:14:47.943Z,4.6
2023-01-21T10:17:07.193Z,4.8
2023-01-21T10:18:17.317Z,4.7
2023-01-21T10:19:27.438Z,4.6
2023-01-21T10:20:37.552Z,4.7
2023-01-21T10:21:47.673Z,4.6
2023-01-21T10:24:07.895Z,4.6
2023-01-21T10:25:18.028Z,4.7
2023-01-21T10:26:28.143Z,4.7
2023-01-21T10:27:38.266Z,4.6
2023-01-21T10:28:48.385Z,4.7
2023-01-21T10:29:58.500Z,4.7
2023-01-21T10:31:07.848Z,4.6
2023-01-21T10:32:17.739Z,4.7
2023-01-21T10:33:28.079Z,4.7
2023-01-21T10:34:37.980Z,4.7
2023-01-21T10:35:48.096Z,4.7
2023-01-21T10:36:58.211Z,4.8
2023-01-21T10:38:08.335Z,4.9
2023-01-21T10:39:18.462Z,4.9
2023-01-21T10:40:28.563Z,4.8
2023-01-21T10:41:38.684Z,4.7
2023-01-21T10:42:48.815Z,4.8
2023-01-21T10:43:58.916Z,4.7
2023-01-21T10:45:09.044Z,4.7
2023-01-21T10:46:18.177Z,4.7
2023-01-21T10:47:28.298Z,4.8
2023-01-21T10:48:38.408Z,4.8
2023-01-21T10:49:48.527Z,4.6
2023-01-21T10:50:58.650Z,4.7
2023-01-21T10:52:08.774Z,4.7
2023-01-21T10:53:18.895Z,4.6
2023-01-21T10:54:29.010Z,4.6
2023-01-21T10:55:39.113Z,4.6
2023-01-21T10:56:49.240Z,4.7
2023-01-21T10:57:59.361Z,4.9
2023-01-21T10:59:09.446Z,4.8
2023-01-21T11:00:19.586Z,4.9
2023-01-21T11:01:28.720Z,5
2023-01-21T11:02:38.840Z,5
2023-01-21T11:03:48.960Z,5.1
2023-01-21T11:06:09.201Z,5.2
2023-01-21T11:07:19.285Z,5.1
2023-01-21T11:08:29.430Z,5.2
2023-01-21T11:09:39.522Z,5.1
2023-01-21T11:10:49.639Z,5.2
2023-01-21T11:11:59.796Z,5.2
2023-01-21T11:13:09.888Z,5.1
2023-01-21T11:14:20.033Z,5.2
2023-01-21T11:15:30.141Z,5
2023-01-21T11:16:39.274Z,4.9
2023-01-21T11:17:49.386Z,5
2023-01-21T11:18:59.515Z,5
2023-01-21T11:20:09.601Z,5.1
2023-01-21T11:21:19.759Z,5.1
2023-01-21T11:22:29.843Z,5.1
2023-01-21T11:23:39.984Z,5.2
2023-01-21T11:24:49.122Z,5.1
2023-01-21T11:27:09.352Z,4.9
2023-01-21T11:28:19.478Z,5
2023-01-21T11:29:29.591Z,5.1
2023-01-21T11:30:39.711Z,5
2023-01-21T11:32:59.940Z,5.1
2023-01-21T11:34:10.066Z,5
2023-01-21T11:35:20.186Z,5.1
2023-01-21T11:36:29.996Z,5.1
2023-01-21T11:37:40.415Z,5.2
2023-01-21T11:38:50.508Z,5.3
2023-01-21T11:39:59.670Z,5.3
2023-01-21T11:41:09.787Z,5.1
2023-01-21T11:42:19.911Z,5.2
2023-01-21T11:43:30.002Z,5.3
2023-01-21T11:44:40.144Z,5.3
2023-01-21T11:45:50.271Z,5.2
2023-01-21T11:48:10.502Z,5.4
2023-01-21T11:49:19.635Z,5.4
2023-01-21T11:50:28.770Z,5.4
2023-01-21T11:51:38.864Z,5.3
2023-01-21T11:52:49.012Z,5.3
2023-01-21T11:55:09.254Z,5.3
2023-01-21T11:56:19.366Z,5.3
2023-01-21T11:57:29.451Z,5.2
2023-01-21T11:58:39.598Z,5.1
2023-01-21T11:59:49.689Z,5.1
2023-01-21T12:00:59.849Z,5.2
2023-01-21T12:02:09.645Z,5.3
2023-01-21T12:03:20.041Z,5.2
2023-01-21T12:04:30.185Z,5.3
2023-01-21T12:05:39.299Z,5.3
2023-01-21T12:06:49.417Z,5.2
2023-01-21T12:07:59.572Z,5.1
2023-01-21T12:09:09.652Z,5
2023-01-21T12:10:19.807Z,5
2023-01-21T12:11:29.928Z,5.1
2023-01-21T12:12:40.000Z,5.1
2023-01-21T12:13:50.148Z,5
2023-01-21T12:16:09.417Z,5.1
2023-01-21T12:17:18.547Z,5
2023-01-21T12:18:28.647Z,5.1
2023-01-21T12:19:37.781Z,5
2023-01-21T12:20:46.915Z,4.9
2023-01-21T12:23:07.188Z,5.1
2023-01-21T12:24:17.306Z,5.1
2023-01-21T12:25:27.412Z,5.1
2023-01-21T12:26:37.533Z,5.1
2023-01-21T12:27:47.629Z,5
2023-01-21T12:28:57.776Z,5
2023-01-21T12:30:07.871Z,5
2023-01-21T12:31:18.002Z,5
2023-01-21T12:32:28.122Z,5.1
2023-01-21T12:33:38.246Z,5.1
2023-01-21T12:34:48.363Z,5.1
2023-01-21T12:35:57.500Z,5.2
2023-01-21T12:37:07.605Z,5.1
2023-01-21T12:38:17.703Z,5
2023-01-21T12:39:27.843Z,5
2023-01-21T12:40:37.960Z,5.1
2023-01-21T12:41:48.050Z,5.1
2023-01-21T12:42:58.168Z,5.1
2023-01-21T12:44:08.288Z,5
2023-01-21T12:45:18.442Z,4.9
2023-01-21T12:46:28.549Z,4.9
2023-01-21T12:47:38.645Z,4.9
2023-01-21T12:48:48.787Z,4.8
2023-01-21T12:49:58.903Z,4.8
2023-01-21T12:51:08.053Z,4.9
2023-01-21T12:52:18.155Z,4.9
2023-01-21T12:53:28.247Z,5
2023-01-21T12:54:38.369Z,5
2023-01-21T12:55:48.526Z,4.9
2023-01-21T12:56:58.629Z,4.9
2023-01-21T12:58:08.755Z,4.9
2023-01-21T12:59:18.862Z,5
2023-01-21T13:00:28.992Z,4.9
2023-01-21T13:01:39.104Z,5
2023-01-21T13:02:49.232Z,4.8
2023-01-21T13:03:59.312Z,4.8
2023-01-21T13:05:09.471Z,4.8
2023-01-21T13:06:18.605Z,4.8
2023-01-21T13:07:28.706Z,4.8
2023-01-21T13:08:38.807Z,4.9
2023-01-21T13:09:48.918Z,4.9
2023-01-21T13:10:59.067Z,4.9
2023-01-21T13:12:09.162Z,4.7
2023-01-21T13:13:19.295Z,4.8
2023-01-21T13:14:29.397Z,4.8
2023-01-21T13:15:39.531Z,4.7
2023-01-21T13:16:49.665Z,4.8
2023-01-21T13:17:59.776Z,5
2023-01-21T13:19:09.899Z,4.9
2023-01-21T13:20:19.976Z,5
2023-01-21T13:21:30.222Z,4.9
2023-01-21T13:23:50.479Z,4.8
2023-01-21T13:25:00.605Z,4.7
2023-01-21T13:26:10.729Z,4.7
2023-01-21T13:27:20.836Z,4.8
2023-01-21T13:28:30.923Z,4.7
2023-01-21T13:29:41.084Z,4.7
2023-01-21T13:30:51.184Z,4.6
2023-01-21T13:32:01.315Z,4.6
2023-01-21T13:33:11.424Z,4.6
2023-01-21T13:34:21.453Z,4.6
2023-01-21T13:35:31.657Z,4.6
2023-01-21T13:36:40.796Z,4.6
2023-01-21T13:37:50.927Z,4.6
2023-01-21T13:39:01.047Z,4.6
2023-01-21T13:40:11.049Z,4.6
2023-01-21T13:41:21.283Z,4.6
2023-01-21T13:42:31.370Z,4.5
2023-01-21T13:43:41.515Z,4.5
2023-01-21T13:44:51.595Z,4.6
2023-01-21T13:47:11.866Z,4.6
2023-01-21T13:48:21.956Z,4.5
2023-01-21T13:49:32.095Z,4.6
2023-01-21T13:50:42.219Z,4.6
2023-01-21T13:51:51.350Z,4.6
2023-01-21T13:53:01.471Z,4.7
2023-01-21T13:54:11.562Z,4.7
2023-01-21T13:55:21.700Z,4.8
2023-01-21T13:56:31.816Z,4.7
2023-01-21T13:57:41.944Z,4.7
2023-01-21T13:58:52.062Z,4.6
2023-01-21T14:00:02.186Z,4.5
2023-01-21T14:01:12.290Z,4.6
2023-01-21T14:02:22.418Z,4.6
2023-01-21T14:03:32.526Z,4.5
2023-01-21T14:04:42.620Z,4.5
2023-01-21T14:05:52.770Z,4.6
2023-01-21T14:08:12.026Z,4.6
2023-01-21T14:09:22.108Z,4.6
2023-01-21T14:10:32.222Z,4.5
2023-01-21T14:11:42.371Z,4.5
2023-01-21T14:12:52.502Z,4.6
2023-01-21T14:14:02.604Z,4.4
2023-01-21T14:15:12.732Z,4.5
2023-01-21T14:16:22.857Z,4.5
2023-01-21T14:17:32.962Z,4.5
2023-01-21T14:18:43.086Z,4.4
2023-01-21T14:19:53.211Z,4.4
2023-01-21T14:21:03.315Z,4.4
2023-01-21T14:22:12.451Z,4.4
2023-01-21T14:23:22.569Z,4.4
2023-01-21T14:24:32.693Z,4.3
2023-01-21T14:25:42.799Z,4.3
2023-01-21T14:26:52.921Z,4.4
2023-01-21T14:28:03.045Z,4.4
2023-01-21T14:29:13.126Z,4.3
2023-01-21T14:30:23.283Z,4.4
2023-01-21T14:31:33.390Z,4.4
2023-01-21T14:32:43.485Z,4.4
2023-01-21T14:33:53.632Z,4.4
2023-01-21T14:35:03.757Z,4.4
2023-01-21T14:36:13.865Z,4.3
2023-01-21T14:37:22.998Z,4.3
2023-01-21T14:38:33.090Z,4.3
2023-01-21T14:39:43.242Z,4.3
2023-01-21T14:40:53.327Z,4.3
2023-01-21T14:42:03.485Z,4.3
2023-01-21T14:43:13.558Z,4.2
2023-01-21T14:44:23.712Z,4.2
2023-01-21T14:45:33.830Z,4.2
2023-01-21T14:46:43.953Z,4.2
2023-01-21T14:47:54.064Z,4.3
2023-01-21T14:49:04.182Z,4.2
2023-01-21T14:50:14.294Z,4.2
2023-01-21T14:51:24.414Z,4.2
2023-01-21T14:52:33.560Z,4.1
2023-01-21T14:53:43.668Z,4.2
2023-01-21T14:54:53.796Z,4.2
2023-01-21T14:56:03.902Z,4.2
2023-01-21T14:57:14.025Z,4.2
2023-01-21T14:58:24.118Z,4.2
2023-01-21T14:59:34.266Z,4.1
2023-01-21T15:00:44.380Z,4.2
2023-01-21T15:01:54.496Z,4.2
2023-01-21T15:03:04.623Z,4.1
2023-01-21T15:04:14.702Z,4.2
2023-01-21T15:05:24.848Z,4.2
2023-01-21T15:06:34.964Z,4.2
2023-01-21T15:07:44.106Z,4.2
2023-01-21T15:08:54.190Z,4.1
2023-01-21T15:10:04.333Z,4.1
2023-01-21T15:11:14.467Z,4.1
2023-01-21T15:12:24.587Z,4.1
2023-01-21T15:13:34.691Z,4.1
2023-01-21T15:14:44.808Z,4.1
2023-01-21T15:15:54.930Z,4.1
2023-01-21T15:17:05.057Z,4.1
2023-01-21T15:18:15.162Z,4.1
2023-01-21T15:19:24.312Z,4
2023-01-21T15:20:34.433Z,4
2023-01-21T15:21:44.549Z,4
2023-01-21T15:22:54.666Z,4.1
2023-01-21T15:25:14.892Z,4.1
2023-01-21T15:26:25.018Z,4.1
2023-01-21T15:27:35.104Z,4.1
2023-01-21T15:28:45.247Z,4.1
2023-01-21T15:29:55.362Z,4.1
2023-01-21T15:31:05.489Z,4.1
2023-01-21T15:32:15.609Z,4.1
2023-01-21T15:33:25.734Z,4
2023-01-21T15:34:34.863Z,4
2023-01-21T15:35:44.979Z,4
2023-01-21T15:36:55.070Z,4
2023-01-21T15:39:15.336Z,4
2023-01-21T15:40:25.451Z,4
2023-01-21T15:41:35.569Z,4
2023-01-21T15:42:45.678Z,4
2023-01-21T15:43:55.799Z,4
2023-01-21T15:45:05.923Z,3.9
2023-01-21T15:46:16.041Z,4
2023-01-21T15:47:26.164Z,3.9
2023-01-21T15:48:36.251Z,4
2023-01-21T15:49:45.410Z,4
2023-01-21T15:50:55.528Z,4
2023-01-21T15:52:05.655Z,3.9
2023-01-21T15:53:15.771Z,4
2023-01-21T15:54:25.878Z,4
2023-01-21T15:55:35.993Z,3.9
2023-01-21T15:56:46.085Z,3.9
2023-01-21T15:57:56.450Z,3.9
2023-01-21T16:00:16.472Z,3.9
2023-01-21T16:01:26.597Z,3.9
2023-01-21T16:02:36.680Z,4
2023-01-21T16:03:46.828Z,3.9
2023-01-21T16:04:55.959Z,3.8
2023-01-21T16:06:06.084Z,3.8
2023-01-21T16:07:16.190Z,3.9
2023-01-21T16:08:26.309Z,3.9
2023-01-21T16:09:36.433Z,3.8
2023-01-21T16:10:46.549Z,3.8
2023-01-21T16:11:56.673Z,3.9
2023-01-21T16:13:06.790Z,3.8
2023-01-21T16:14:16.874Z,3.9
2023-01-21T16:15:27.020Z,3.8
2023-01-21T16:16:37.145Z,3.8
2023-01-21T16:17:47.475Z,3.8
2023-01-21T16:18:57.387Z,3.8
2023-01-21T16:20:06.518Z,3.8
2023-01-21T16:21:16.641Z,3.8
2023-01-21T16:22:26.746Z,3.8
2023-01-21T16:23:36.871Z,3.8
2023-01-21T16:24:46.957Z,3.8
2023-01-21T16:25:57.083Z,3.7
2023-01-21T16:27:07.222Z,3.7
2023-01-21T16:28:17.350Z,3.7
2023-01-21T16:29:27.455Z,3.8
2023-01-21T16:30:37.539Z,3.8
2023-01-21T16:31:47.695Z,3.7
2023-01-21T16:32:57.814Z,3.7
2023-01-21T16:34:07.928Z,3.7
2023-01-21T16:35:17.028Z,3.7
2023-01-21T16:36:27.179Z,3.7
2023-01-21T16:37:37.304Z,3.7
2023-01-21T16:38:47.396Z,3.8
2023-01-21T16:39:57.501Z,3.7
2023-01-21T16:42:17.753Z,3.8
2023-01-21T16:43:27.885Z,3.7
2023-01-21T16:44:38.010Z,3.6
2023-01-21T16:45:48.136Z,3.7
2023-01-21T16:46:58.241Z,3.7
2023-01-21T16:48:08.367Z,3.7
2023-01-21T16:49:18.456Z,3.7
2023-01-21T16:50:27.594Z,3.7
2023-01-21T16:51:37.745Z,3.6
2023-01-21T16:52:47.847Z,3.7
2023-01-21T16:53:57.940Z,3.7
2023-01-21T16:55:08.064Z,3.7
2023-01-21T16:56:18.186Z,3.7
2023-01-21T16:57:28.325Z,3.7
2023-01-21T16:58:38.420Z,3.6
2023-01-21T16:59:48.536Z,3.6
2023-01-21T17:00:58.655Z,3.7